sensor_id;sensor_type;location;lat;lon;timestamp;pressure;altitude;pressure_sealevel;temperature;humidity
15817;BME280;8009;50.070;8.232;2023-04-04T00:41:53;101140.44;;;3.02;47.89
15817;BME280;8009;50.070;8.232;2023-04-04T00:44:21;101128.47;;;3.16;47.66
15817;BME280;8009;50.070;8.232;2023-04-04T02:18:58;101121.38;;;2.47;49.44
15817;BME280;8009;50.070;8.232;2023-04-04T02:21:53;101115.59;;;2.65;48.51
15817;BME280;8009;50.070;8.232;2023-04-04T02:24:22;101121.53;;;2.41;49.87
15817;BME280;8009;50.070;8.232;2023-04-04T02:26:50;101120.47;;;2.48;48.90
15817;BME280;8009;50.070;8.232;2023-04-04T02:29:18;101120.47;;;2.48;49.26
15817;BME280;8009;50.070;8.232;2023-04-04T02:31:51;101117.91;;;2.43;49.42
15817;BME280;8009;50.070;8.232;2023-04-04T02:37:34;101125.81;;;2.48;49.44
15817;BME280;8009;50.070;8.232;2023-04-04T04:03:39;101068.06;;;2.10;48.16
15817;BME280;8009;50.070;8.232;2023-04-04T05:00:16;101073.75;;;1.94;48.13
15817;BME280;8009;50.070;8.232;2023-04-04T05:56:49;101069.66;;;2.54;47.08
15817;BME280;8009;50.070;8.232;2023-04-04T05:59:17;101081.44;;;2.46;47.80
15817;BME280;8009;50.070;8.232;2023-04-04T06:04:57;101075.06;;;2.51;47.19
15817;BME280;8009;50.070;8.232;2023-04-04T06:07:25;101073.66;;;2.71;46.83
15817;BME280;8009;50.070;8.232;2023-04-04T06:09:57;101072.38;;;2.85;46.19
15817;BME280;8009;50.070;8.232;2023-04-04T06:12:27;101073.69;;;3.03;45.89
15817;BME280;8009;50.070;8.232;2023-04-04T06:14:56;101076.31;;;3.05;46.48
15817;BME280;8009;50.070;8.232;2023-04-04T06:21:17;101076.34;;;3.03;46.05
15817;BME280;8009;50.070;8.232;2023-04-04T06:23:45;101079.38;;;2.91;45.79
15817;BME280;8009;50.070;8.232;2023-04-04T06:26:13;101078.75;;;3.12;45.45
15817;BME280;8009;50.070;8.232;2023-04-04T06:28:48;101082.56;;;3.36;46.24
15817;BME280;8009;50.070;8.232;2023-04-04T06:31:17;101079.81;;;3.07;44.89
15817;BME280;8009;50.070;8.232;2023-04-04T06:33:45;101075.56;;;3.32;44.70
15817;BME280;8009;50.070;8.232;2023-04-04T06:36:13;101081.41;;;3.45;44.87
15817;BME280;8009;50.070;8.232;2023-04-04T06:38:42;101084.72;;;3.53;44.78
15817;BME280;8009;50.070;8.232;2023-04-04T06:41:10;101093.09;;;3.10;44.65
15817;BME280;8009;50.070;8.232;2023-04-04T06:43:38;101087.69;;;3.42;44.28
15817;BME280;8009;50.070;8.232;2023-04-04T06:46:11;101089.28;;;3.18;44.67
15817;BME280;8009;50.070;8.232;2023-04-04T06:48:40;101092.13;;;3.44;44.15
15817;BME280;8009;50.070;8.232;2023-04-04T06:51:21;101090.06;;;3.53;43.79
15817;BME280;8009;50.070;8.232;2023-04-04T06:53:49;101086.81;;;3.44;43.63
15817;BME280;8009;50.070;8.232;2023-04-04T06:56:18;101098.13;;;3.52;43.62
15817;BME280;8009;50.070;8.232;2023-04-04T06:58:50;101097.13;;;3.54;43.62
15817;BME280;8009;50.070;8.232;2023-04-04T07:10:58;101100.22;;;3.72;42.03
15817;BME280;8009;50.070;8.232;2023-04-04T07:22:57;101109.47;;;3.58;42.66
15817;BME280;8009;50.070;8.232;2023-04-04T07:28:38;101106.00;;;3.86;42.76
15817;BME280;8009;50.070;8.232;2023-04-04T07:31:07;101112.88;;;3.95;42.63
15817;BME280;8009;50.070;8.232;2023-04-04T07:33:35;101110.66;;;4.09;42.08
15817;BME280;8009;50.070;8.232;2023-04-04T07:36:04;101107.50;;;4.24;41.91
15817;BME280;8009;50.070;8.232;2023-04-04T07:38:32;101108.50;;;4.20;42.24
15817;BME280;8009;50.070;8.232;2023-04-04T07:41:01;101109.22;;;3.97;42.39
15817;BME280;8009;50.070;8.232;2023-04-04T07:43:29;101100.34;;;4.25;42.56
15817;BME280;8009;50.070;8.232;2023-04-04T07:46:01;101105.72;;;4.51;41.03
15817;BME280;8009;50.070;8.232;2023-04-04T07:48:29;101107.00;;;4.39;41.45
15817;BME280;8009;50.070;8.232;2023-04-04T07:50:57;101110.31;;;4.73;41.49
15817;BME280;8009;50.070;8.232;2023-04-04T07:53:26;101106.56;;;4.25;41.26
15817;BME280;8009;50.070;8.232;2023-04-04T07:55:54;101110.59;;;4.10;41.11
15817;BME280;8009;50.070;8.232;2023-04-04T07:58:23;101105.34;;;4.35;41.05
15817;BME280;8009;50.070;8.232;2023-04-04T08:00:51;101101.31;;;4.50;41.31
15817;BME280;8009;50.070;8.232;2023-04-04T08:03:22;101104.69;;;4.82;41.63
15817;BME280;8009;50.070;8.232;2023-04-04T08:05:51;101102.38;;;4.71;40.56
15817;BME280;8009;50.070;8.232;2023-04-04T08:08:19;101098.72;;;4.74;40.70
15817;BME280;8009;50.070;8.232;2023-04-04T08:10:47;101095.97;;;4.75;41.19
15817;BME280;8009;50.070;8.232;2023-04-04T08:13:16;101095.56;;;4.61;41.15
15817;BME280;8009;50.070;8.232;2023-04-04T08:15:44;101091.72;;;4.70;40.93
15817;BME280;8009;50.070;8.232;2023-04-04T08:18:15;101093.41;;;4.46;41.67
15817;BME280;8009;50.070;8.232;2023-04-04T08:20:47;101096.94;;;4.46;41.19
15817;BME280;8009;50.070;8.232;2023-04-04T08:23:15;101095.84;;;5.05;41.14
15817;BME280;8009;50.070;8.232;2023-04-04T08:25:45;101088.06;;;5.22;40.76
15817;BME280;8009;50.070;8.232;2023-04-04T08:28:14;101084.75;;;4.91;40.91
15817;BME280;8009;50.070;8.232;2023-04-04T08:30:42;101089.84;;;5.23;41.07
15817;BME280;8009;50.070;8.232;2023-04-04T08:33:10;101094.41;;;4.70;40.73
15817;BME280;8009;50.070;8.232;2023-04-04T08:35:39;101099.84;;;4.93;41.38
15817;BME280;8009;50.070;8.232;2023-04-04T08:38:10;101092.34;;;5.03;40.13
15817;BME280;8009;50.070;8.232;2023-04-04T08:40:38;101093.66;;;5.16;39.79
15817;BME280;8009;50.070;8.232;2023-04-04T08:43:07;101090.94;;;5.41;40.14
15817;BME280;8009;50.070;8.232;2023-04-04T08:45:40;101086.53;;;5.63;39.22
15817;BME280;8009;50.070;8.232;2023-04-04T08:48:10;101086.53;;;5.63;40.57
15817;BME280;8009;50.070;8.232;2023-04-04T08:50:39;101092.44;;;5.73;38.84
15817;BME280;8009;50.070;8.232;2023-04-04T08:53:11;101095.97;;;5.27;38.90
15817;BME280;8009;50.070;8.232;2023-04-04T08:55:41;101090.66;;;5.72;39.41
15817;BME280;8009;50.070;8.232;2023-04-04T08:58:10;101087.94;;;5.74;38.42
15817;BME280;8009;50.070;8.232;2023-04-04T09:00:38;101080.38;;;5.38;38.90
15817;BME280;8009;50.070;8.232;2023-04-04T09:03:09;101086.03;;;5.77;39.77
15817;BME280;8009;50.070;8.232;2023-04-04T09:05:42;101079.81;;;5.28;38.82
15817;BME280;8009;50.070;8.232;2023-04-04T09:08:15;101078.31;;;5.45;40.04
15817;BME280;8009;50.070;8.232;2023-04-04T09:10:46;101074.88;;;5.41;39.64
15817;BME280;8009;50.070;8.232;2023-04-04T09:13:15;101078.97;;;5.75;38.41
15817;BME280;8009;50.070;8.232;2023-04-04T09:15:46;101087.69;;;5.56;38.61
15817;BME280;8009;50.070;8.232;2023-04-04T09:18:16;101088.94;;;5.48;38.46
15817;BME280;8009;50.070;8.232;2023-04-04T09:20:45;101080.38;;;5.38;38.65
15817;BME280;8009;50.070;8.232;2023-04-04T09:23:18;101072.78;;;5.49;38.95
15817;BME280;8009;50.070;8.232;2023-04-04T09:25:50;101075.00;;;6.08;38.60
15817;BME280;8009;50.070;8.232;2023-04-04T09:28:20;101074.06;;;6.31;37.89
15817;BME280;8009;50.070;8.232;2023-04-04T09:30:50;101079.69;;;6.03;38.28
15817;BME280;8009;50.070;8.232;2023-04-04T09:33:20;101077.69;;;5.61;38.96
15817;BME280;8009;50.070;8.232;2023-04-04T09:35:50;101072.56;;;6.24;37.87
15817;BME280;8009;50.070;8.232;2023-04-04T09:38:22;101070.63;;;6.28;37.64
15817;BME280;8009;50.070;8.232;2023-04-04T09:40:51;101073.19;;;6.53;37.09
15817;BME280;8009;50.070;8.232;2023-04-04T09:43:21;101075.47;;;6.62;37.95
15817;BME280;8009;50.070;8.232;2023-04-04T09:45:50;101075.34;;;6.65;37.42
15817;BME280;8009;50.070;8.232;2023-04-04T09:48:26;101077.34;;;6.60;36.78
15817;BME280;8009;50.070;8.232;2023-04-04T09:50:56;101069.94;;;6.01;37.89
15817;BME280;8009;50.070;8.232;2023-04-04T09:53:27;101069.06;;;5.77;37.71
15817;BME280;8009;50.070;8.232;2023-04-04T09:55:56;101071.63;;;6.25;37.48
15817;BME280;8009;50.070;8.232;2023-04-04T09:58:25;101067.09;;;6.27;38.27
15817;BME280;8009;50.070;8.232;2023-04-04T10:00:58;101071.81;;;6.43;37.21
15817;BME280;8009;50.070;8.232;2023-04-04T10:03:28;101067.41;;;6.20;37.10
15817;BME280;8009;50.070;8.232;2023-04-04T10:05:58;101056.34;;;6.27;37.03
15817;BME280;8009;50.070;8.232;2023-04-04T10:08:31;101063.16;;;5.92;37.03
15817;BME280;8009;50.070;8.232;2023-04-04T10:11:01;101060.75;;;6.06;37.48
15817;BME280;8009;50.070;8.232;2023-04-04T10:13:32;101061.34;;;5.93;37.00
15817;BME280;8009;50.070;8.232;2023-04-04T10:16:01;101062.47;;;6.09;36.93
15817;BME280;8009;50.070;8.232;2023-04-04T10:18:34;101058.78;;;6.12;36.49
15817;BME280;8009;50.070;8.232;2023-04-04T10:21:04;101053.75;;;6.26;36.81
15817;BME280;8009;50.070;8.232;2023-04-04T10:23:35;101048.53;;;6.43;35.95
15817;BME280;8009;50.070;8.232;2023-04-04T10:26:04;101037.31;;;6.76;35.66
15817;BME280;8009;50.070;8.232;2023-04-04T10:28:35;101034.88;;;7.11;36.86
15817;BME280;8009;50.070;8.232;2023-04-04T10:31:08;101041.25;;;7.66;36.09
15817;BME280;8009;50.070;8.232;2023-04-04T10:33:46;101047.69;;;7.24;34.45
15817;BME280;8009;50.070;8.232;2023-04-04T10:39:51;101048.38;;;7.09;35.06
15817;BME280;8009;50.070;8.232;2023-04-04T10:42:21;101052.81;;;7.10;35.24
15817;BME280;8009;50.070;8.232;2023-04-04T10:51:07;101035.66;;;6.51;36.35
15817;BME280;8009;50.070;8.232;2023-04-04T10:53:38;101028.59;;;6.91;36.22
15817;BME280;8009;50.070;8.232;2023-04-04T10:56:10;101029.50;;;6.90;36.65
15817;BME280;8009;50.070;8.232;2023-04-04T10:59:08;101019.63;;;7.69;35.36
15817;BME280;8009;50.070;8.232;2023-04-04T11:01:47;101022.25;;;7.52;33.94
15817;BME280;8009;50.070;8.232;2023-04-04T11:04:17;101016.84;;;7.33;35.59
15817;BME280;8009;50.070;8.232;2023-04-04T11:10:12;101016.94;;;7.69;35.13
15817;BME280;8009;50.070;8.232;2023-04-04T11:12:44;101003.09;;;7.96;34.94
15817;BME280;8009;50.070;8.232;2023-04-04T11:15:14;101005.44;;;7.66;35.79
15817;BME280;8009;50.070;8.232;2023-04-04T11:17:49;101003.22;;;8.12;35.85
15817;BME280;8009;50.070;8.232;2023-04-04T11:20:20;101003.72;;;7.65;35.08
15817;BME280;8009;50.070;8.232;2023-04-04T11:22:50;101005.94;;;7.74;34.91
15817;BME280;8009;50.070;8.232;2023-04-04T11:25:31;101009.66;;;7.90;34.32
15817;BME280;8009;50.070;8.232;2023-04-04T11:31:26;100990.91;;;8.25;33.65
15817;BME280;8009;50.070;8.232;2023-04-04T11:37:18;100987.66;;;7.44;35.01
15817;BME280;8009;50.070;8.232;2023-04-04T11:52:08;100966.81;;;8.41;33.06
15817;BME280;8009;50.070;8.232;2023-04-04T11:57:47;100953.38;;;8.91;34.32
15817;BME280;8009;50.070;8.232;2023-04-04T12:00:28;100957.25;;;8.16;33.52
15817;BME280;8009;50.070;8.232;2023-04-04T12:02:57;100953.34;;;8.04;32.75
15817;BME280;8009;50.070;8.232;2023-04-04T12:08:39;100945.34;;;8.57;33.58
15817;BME280;8009;50.070;8.232;2023-04-04T12:14:24;100951.13;;;8.66;32.67
15817;BME280;8009;50.070;8.232;2023-04-04T12:16:54;100936.41;;;8.56;33.21
15817;BME280;8009;50.070;8.232;2023-04-04T12:19:24;100939.31;;;8.86;33.04
15817;BME280;8009;50.070;8.232;2023-04-04T12:21:53;100936.19;;;9.43;33.97
15817;BME280;8009;50.070;8.232;2023-04-04T12:24:24;100931.97;;;9.06;36.23
15817;BME280;8009;50.070;8.232;2023-04-04T12:26:53;100932.94;;;8.87;32.21
15817;BME280;8009;50.070;8.232;2023-04-04T12:29:24;100932.13;;;9.02;33.26
15817;BME280;8009;50.070;8.232;2023-04-04T12:31:54;100923.88;;;8.72;33.93
15817;BME280;8009;50.070;8.232;2023-04-04T12:34:24;100921.63;;;9.14;36.60
15817;BME280;8009;50.070;8.232;2023-04-04T12:36:54;100923.34;;;9.15;33.55
15817;BME280;8009;50.070;8.232;2023-04-04T12:39:28;100918.88;;;9.47;33.46
15817;BME280;8009;50.070;8.232;2023-04-04T12:42:08;100925.13;;;9.16;38.07
15817;BME280;8009;50.070;8.232;2023-04-04T12:44:38;100919.81;;;9.46;39.15
15817;BME280;8009;50.070;8.232;2023-04-04T12:50:20;100908.84;;;9.17;36.05
15817;BME280;8009;50.070;8.232;2023-04-04T12:52:51;100914.09;;;9.20;37.98
15817;BME280;8009;50.070;8.232;2023-04-04T12:55:23;100908.75;;;9.03;36.71
15817;BME280;8009;50.070;8.232;2023-04-04T12:57:51;100897.81;;;9.22;34.42
15817;BME280;8009;50.070;8.232;2023-04-04T13:00:30;100890.97;;;9.48;36.57
15817;BME280;8009;50.070;8.232;2023-04-04T13:02:59;100899.38;;;9.26;36.58
15817;BME280;8009;50.070;8.232;2023-04-04T13:05:28;100896.56;;;8.96;37.51
15817;BME280;8009;50.070;8.232;2023-04-04T13:08:08;100891.97;;;8.98;42.08
15817;BME280;8009;50.070;8.232;2023-04-04T13:10:57;100883.94;;;8.81;40.43
15817;BME280;8009;50.070;8.232;2023-04-04T13:13:32;100888.72;;;8.91;37.43
15817;BME280;8009;50.070;8.232;2023-04-04T13:16:02;100881.22;;;9.30;37.55
15817;BME280;8009;50.070;8.232;2023-04-04T13:18:33;100881.22;;;9.45;35.63
15817;BME280;8009;50.070;8.232;2023-04-04T13:21:03;100861.84;;;9.39;38.52
15817;BME280;8009;50.070;8.232;2023-04-04T13:23:33;100876.19;;;9.23;36.39
15817;BME280;8009;50.070;8.232;2023-04-04T13:26:08;100871.53;;;8.61;37.46
15817;BME280;8009;50.070;8.232;2023-04-04T13:28:37;100863.25;;;8.81;37.49
15817;BME280;8009;50.070;8.232;2023-04-04T13:31:07;100860.19;;;8.71;38.40
15817;BME280;8009;50.070;8.232;2023-04-04T13:33:36;100863.63;;;8.91;37.89
15817;BME280;8009;50.070;8.232;2023-04-04T13:36:05;100858.63;;;9.32;34.49
15817;BME280;8009;50.070;8.232;2023-04-04T13:38:33;100859.00;;;9.72;37.46
15817;BME280;8009;50.070;8.232;2023-04-04T13:41:02;100857.81;;;9.30;33.87
15817;BME280;8009;50.070;8.232;2023-04-04T13:43:33;100847.78;;;8.85;34.67
15817;BME280;8009;50.070;8.232;2023-04-04T13:46:01;100839.66;;;8.86;34.70
15817;BME280;8009;50.070;8.232;2023-04-04T13:48:30;100838.97;;;8.98;34.51
15817;BME280;8009;50.070;8.232;2023-04-04T13:50:58;100836.03;;;8.70;35.57
15817;BME280;8009;50.070;8.232;2023-04-04T13:53:28;100823.47;;;9.34;34.09
15817;BME280;8009;50.070;8.232;2023-04-04T13:55:57;100826.44;;;9.29;34.24
15817;BME280;8009;50.070;8.232;2023-04-04T13:58:25;100826.66;;;8.77;34.59
15817;BME280;8009;50.070;8.232;2023-04-04T14:00:56;100821.16;;;9.27;33.78
15817;BME280;8009;50.070;8.232;2023-04-04T14:03:24;100823.16;;;9.24;34.05
15817;BME280;8009;50.070;8.232;2023-04-04T14:05:53;100811.25;;;9.28;34.76
15817;BME280;8009;50.070;8.232;2023-04-04T14:08:21;100809.91;;;9.51;34.57
15817;BME280;8009;50.070;8.232;2023-04-04T14:10:50;100824.25;;;8.88;34.40
15817;BME280;8009;50.070;8.232;2023-04-04T14:13:18;100802.91;;;9.17;34.65
15817;BME280;8009;50.070;8.232;2023-04-04T14:15:47;100794.28;;;9.72;36.00
15817;BME280;8009;50.070;8.232;2023-04-04T14:18:18;100794.81;;;9.33;34.21
15817;BME280;8009;50.070;8.232;2023-04-04T14:20:48;100796.13;;;8.94;34.48
15817;BME280;8009;50.070;8.232;2023-04-04T14:23:16;100803.78;;;8.86;34.24
15817;BME280;8009;50.070;8.232;2023-04-04T14:25:45;100788.28;;;9.21;34.61
15817;BME280;8009;50.070;8.232;2023-04-04T14:28:14;100777.16;;;9.27;35.10
15817;BME280;8009;50.070;8.232;2023-04-04T14:30:43;100779.69;;;9.14;34.20
15817;BME280;8009;50.070;8.232;2023-04-04T14:33:11;100777.59;;;9.35;34.45
15817;BME280;8009;50.070;8.232;2023-04-04T14:35:42;100783.34;;;9.29;34.78
15817;BME280;8009;50.070;8.232;2023-04-04T14:38:10;100776.13;;;9.14;35.46
15817;BME280;8009;50.070;8.232;2023-04-04T14:40:39;100788.31;;;8.89;34.80
15817;BME280;8009;50.070;8.232;2023-04-04T14:43:07;100783.44;;;8.96;34.62
15817;BME280;8009;50.070;8.232;2023-04-04T14:45:36;100773.88;;;9.06;35.50
15817;BME280;8009;50.070;8.232;2023-04-04T14:48:04;100774.91;;;9.19;35.85
15817;BME280;8009;50.070;8.232;2023-04-04T14:50:32;100775.09;;;9.16;35.58
15817;BME280;8009;50.070;8.232;2023-04-04T14:53:05;100776.75;;;8.87;35.02
15817;BME280;8009;50.070;8.232;2023-04-04T14:55:33;100765.78;;;9.06;34.83
15817;BME280;8009;50.070;8.232;2023-04-04T14:58:02;100767.91;;;9.01;35.91
15817;BME280;8009;50.070;8.232;2023-04-04T15:00:30;100780.72;;;8.96;35.64
15817;BME280;8009;50.070;8.232;2023-04-04T15:02:59;100764.25;;;8.86;35.46
15817;BME280;8009;50.070;8.232;2023-04-04T15:05:27;100771.63;;;8.98;35.80
15817;BME280;8009;50.070;8.232;2023-04-04T15:07:57;100761.59;;;9.32;35.58
15817;BME280;8009;50.070;8.232;2023-04-04T15:10:28;100753.34;;;9.19;36.16
15817;BME280;8009;50.070;8.232;2023-04-04T15:12:56;100769.00;;;8.81;35.72
15817;BME280;8009;50.070;8.232;2023-04-04T15:15:24;100757.88;;;9.19;35.57
15817;BME280;8009;50.070;8.232;2023-04-04T15:17:53;100768.13;;;8.96;35.40
15817;BME280;8009;50.070;8.232;2023-04-04T15:20:21;100753.34;;;9.03;35.77
15817;BME280;8009;50.070;8.232;2023-04-04T15:22:50;100742.41;;;9.07;36.22
15817;BME280;8009;50.070;8.232;2023-04-04T15:25:18;100745.38;;;9.02;36.33
15817;BME280;8009;50.070;8.232;2023-04-04T15:27:49;100754.78;;;8.79;36.58
15817;BME280;8009;50.070;8.232;2023-04-04T15:30:18;100749.72;;;9.05;37.29
15817;BME280;8009;50.070;8.232;2023-04-04T15:32:47;100741.72;;;9.03;35.77
15817;BME280;8009;50.070;8.232;2023-04-04T15:35:18;100751.72;;;9.01;35.71
15817;BME280;8009;50.070;8.232;2023-04-04T15:37:46;100754.50;;;8.84;36.21
15817;BME280;8009;50.070;8.232;2023-04-04T15:40:16;100758.22;;;8.65;35.98
15817;BME280;8009;50.070;8.232;2023-04-04T15:42:45;100739.81;;;9.05;35.99
15817;BME280;8009;50.070;8.232;2023-04-04T15:45:16;100751.63;;;8.71;36.13
15817;BME280;8009;50.070;8.232;2023-04-04T15:47:44;100748.84;;;8.88;36.24
15817;BME280;8009;50.070;8.232;2023-04-04T15:50:13;100748.84;;;8.57;36.34
15817;BME280;8009;50.070;8.232;2023-04-04T15:52:41;100740.16;;;8.83;36.77
15817;BME280;8009;50.070;8.232;2023-04-04T15:55:11;100745.13;;;8.75;36.55
15817;BME280;8009;50.070;8.232;2023-04-04T15:57:41;100744.84;;;8.64;36.55
15817;BME280;8009;50.070;8.232;2023-04-04T16:00:12;100751.47;;;8.74;36.62
15817;BME280;8009;50.070;8.232;2023-04-04T16:02:43;100749.00;;;8.53;36.78
15817;BME280;8009;50.070;8.232;2023-04-04T16:05:12;100737.13;;;8.73;36.36
15817;BME280;8009;50.070;8.232;2023-04-04T16:07:40;100741.56;;;8.74;37.03
15817;BME280;8009;50.070;8.232;2023-04-04T16:10:09;100741.91;;;8.84;37.30
15817;BME280;8009;50.070;8.232;2023-04-04T16:12:37;100728.09;;;8.90;36.95
15817;BME280;8009;50.070;8.232;2023-04-04T16:15:07;100729.72;;;8.93;36.78
15817;BME280;8009;50.070;8.232;2023-04-04T16:17:36;100723.31;;;8.79;36.98
15817;BME280;8009;50.070;8.232;2023-04-04T16:20:08;100736.53;;;8.68;36.87
15817;BME280;8009;50.070;8.232;2023-04-04T16:22:37;100729.13;;;8.72;36.60
15817;BME280;8009;50.070;8.232;2023-04-04T16:25:07;100723.31;;;8.79;36.41
15817;BME280;8009;50.070;8.232;2023-04-04T16:27:35;100722.97;;;8.86;36.57
15817;BME280;8009;50.070;8.232;2023-04-04T16:30:05;100725.75;;;8.52;36.54
15817;BME280;8009;50.070;8.232;2023-04-04T16:32:33;100729.84;;;8.60;36.58
15817;BME280;8009;50.070;8.232;2023-04-04T16:35:02;100715.84;;;8.69;36.87
15817;BME280;8009;50.070;8.232;2023-04-04T16:37:33;100713.09;;;8.70;36.80
15817;BME280;8009;50.070;8.232;2023-04-04T16:40:01;100716.03;;;8.82;36.67
15817;BME280;8009;50.070;8.232;2023-04-04T16:42:30;100709.75;;;8.65;36.97
15817;BME280;8009;50.070;8.232;2023-04-04T16:44:58;100706.63;;;8.89;36.81
15817;BME280;8009;50.070;8.232;2023-04-04T16:47:26;100714.00;;;8.69;36.72
15817;BME280;8009;50.070;8.232;2023-04-04T16:49:54;100709.50;;;8.86;37.21
15817;BME280;8009;50.070;8.232;2023-04-04T16:52:23;100712.00;;;8.41;36.67
15817;BME280;8009;50.070;8.232;2023-04-04T16:54:54;100710.72;;;8.64;36.69
15817;BME280;8009;50.070;8.232;2023-04-04T16:57:22;100717.50;;;8.56;36.97
15817;BME280;8009;50.070;8.232;2023-04-04T16:59:51;100715.06;;;8.18;37.46
15817;BME280;8009;50.070;8.232;2023-04-04T17:02:19;100715.19;;;8.32;37.44
15817;BME280;8009;50.070;8.232;2023-04-04T17:04:47;100712.41;;;8.34;36.89
15817;BME280;8009;50.070;8.232;2023-04-04T17:07:18;100716.59;;;8.06;36.89
15817;BME280;8009;50.070;8.232;2023-04-04T17:09:47;100717.22;;;8.11;37.01
15817;BME280;8009;50.070;8.232;2023-04-04T17:12:18;100717.75;;;8.18;36.60
15817;BME280;8009;50.070;8.232;2023-04-04T17:14:47;100721.28;;;8.36;36.56
15817;BME280;8009;50.070;8.232;2023-04-04T17:17:15;100715.50;;;8.26;36.49
15817;BME280;8009;50.070;8.232;2023-04-04T17:19:44;100706.47;;;8.27;36.45
15817;BME280;8009;50.070;8.232;2023-04-04T17:22:12;100708.84;;;8.00;36.89
15817;BME280;8009;50.070;8.232;2023-04-04T17:24:41;100706.03;;;8.19;37.21
15817;BME280;8009;50.070;8.232;2023-04-04T17:27:09;100709.66;;;8.02;37.16
15817;BME280;8009;50.070;8.232;2023-04-04T17:29:40;100714.78;;;8.06;36.56
15817;BME280;8009;50.070;8.232;2023-04-04T17:32:08;100725.53;;;8.06;37.36
15817;BME280;8009;50.070;8.232;2023-04-04T17:34:37;100716.50;;;8.07;37.33
15817;BME280;8009;50.070;8.232;2023-04-04T17:37:06;100721.88;;;8.07;37.48
15817;BME280;8009;50.070;8.232;2023-04-04T17:39:35;100721.53;;;7.98;37.39
15817;BME280;8009;50.070;8.232;2023-04-04T17:42:04;100722.22;;;8.01;37.48
15817;BME280;8009;50.070;8.232;2023-04-04T17:44:33;100716.72;;;7.70;37.53
15817;BME280;8009;50.070;8.232;2023-04-04T17:47:04;100714.50;;;7.78;38.06
15817;BME280;8009;50.070;8.232;2023-04-04T17:49:33;100718.63;;;7.50;38.12
15817;BME280;8009;50.070;8.232;2023-04-04T17:52:01;100716.47;;;7.74;37.75
15817;BME280;8009;50.070;8.232;2023-04-04T17:54:29;100724.00;;;7.68;38.29
15817;BME280;8009;50.070;8.232;2023-04-04T17:56:58;100725.13;;;7.64;38.19
15817;BME280;8009;50.070;8.232;2023-04-04T17:59:27;100728.44;;;7.69;38.36
15817;BME280;8009;50.070;8.232;2023-04-04T18:01:56;100726.25;;;7.60;38.27
15817;BME280;8009;50.070;8.232;2023-04-04T18:04:26;100721.22;;;7.69;37.82
15817;BME280;8009;50.070;8.232;2023-04-04T18:06:55;100729.94;;;7.57;38.42
15817;BME280;8009;50.070;8.232;2023-04-04T18:09:24;100729.78;;;7.60;38.74
15817;BME280;8009;50.070;8.232;2023-04-04T18:11:53;100723.00;;;7.53;38.35
15817;BME280;8009;50.070;8.232;2023-04-04T18:14:21;100728.03;;;7.59;38.57
15817;BME280;8009;50.070;8.232;2023-04-04T18:16:50;100725.25;;;7.43;39.03
15817;BME280;8009;50.070;8.232;2023-04-04T18:19:18;100729.78;;;7.43;38.87
15817;BME280;8009;50.070;8.232;2023-04-04T18:21:49;100736.66;;;7.48;38.57
15817;BME280;8009;50.070;8.232;2023-04-04T18:24:18;100735.09;;;7.44;39.15
15817;BME280;8009;50.070;8.232;2023-04-04T18:26:46;100740.28;;;7.47;38.95
15817;BME280;8009;50.070;8.232;2023-04-04T18:29:16;100738.50;;;7.48;39.89
15817;BME280;8009;50.070;8.232;2023-04-04T18:31:44;100736.50;;;7.34;39.43
15817;BME280;8009;50.070;8.232;2023-04-04T18:34:13;100736.66;;;7.48;39.46
15817;BME280;8009;50.070;8.232;2023-04-04T18:36:41;100741.94;;;7.50;39.90
15817;BME280;8009;50.070;8.232;2023-04-04T18:39:12;100747.31;;;7.50;39.34
15817;BME280;8009;50.070;8.232;2023-04-04T18:41:43;100744.78;;;7.47;40.22
15817;BME280;8009;50.070;8.232;2023-04-04T18:44:13;100740.50;;;7.43;39.50
15817;BME280;8009;50.070;8.232;2023-04-04T18:46:42;100745.31;;;7.36;39.78
15817;BME280;8009;50.070;8.232;2023-04-04T18:49:10;100744.88;;;7.45;39.71
15817;BME280;8009;50.070;8.232;2023-04-04T18:51:38;100746.53;;;7.30;40.85
15817;BME280;8009;50.070;8.232;2023-04-04T18:54:07;100743.13;;;7.27;40.19
15817;BME280;8009;50.070;8.232;2023-04-04T18:56:38;100746.22;;;7.37;41.00
15817;BME280;8009;50.070;8.232;2023-04-04T18:59:06;100749.69;;;7.21;41.52
15817;BME280;8009;50.070;8.232;2023-04-04T19:01:37;100751.97;;;7.29;40.55
15817;BME280;8009;50.070;8.232;2023-04-04T19:04:06;100747.47;;;7.29;40.69
15817;BME280;8009;50.070;8.232;2023-04-04T19:06:34;100758.69;;;7.01;40.38
15817;BME280;8009;50.070;8.232;2023-04-04T19:09:03;100755.91;;;7.22;40.64
15817;BME280;8009;50.070;8.232;2023-04-04T19:11:32;100757.88;;;7.18;40.77
15817;BME280;8009;50.070;8.232;2023-04-04T19:14:03;100763.03;;;7.23;42.28
15817;BME280;8009;50.070;8.232;2023-04-04T19:16:32;100745.75;;;7.09;41.25
15817;BME280;8009;50.070;8.232;2023-04-04T19:19:00;100757.16;;;7.15;41.41
15817;BME280;8009;50.070;8.232;2023-04-04T19:21:28;100747.19;;;6.99;41.59
15817;BME280;8009;50.070;8.232;2023-04-04T19:23:57;100754.28;;;7.00;42.04
15817;BME280;8009;50.070;8.232;2023-04-04T19:26:26;100753.66;;;6.95;42.54
15817;BME280;8009;50.070;8.232;2023-04-04T19:28:54;100750.16;;;6.93;41.93
15817;BME280;8009;50.070;8.232;2023-04-04T19:31:26;100751.47;;;6.84;41.63
15817;BME280;8009;50.070;8.232;2023-04-04T19:33:58;100757.94;;;6.80;44.30
15817;BME280;8009;50.070;8.232;2023-04-04T19:36:35;100762.22;;;6.84;42.84
15817;BME280;8009;50.070;8.232;2023-04-04T19:39:07;100762.84;;;6.71;43.96
15817;BME280;8009;50.070;8.232;2023-04-04T19:41:37;100759.75;;;6.61;44.45
15817;BME280;8009;50.070;8.232;2023-04-04T19:44:17;100759.88;;;6.39;44.84
15817;BME280;8009;50.070;8.232;2023-04-04T19:46:49;100760.84;;;6.38;45.23
15817;BME280;8009;50.070;8.232;2023-04-04T19:49:17;100762.91;;;6.31;44.83
15817;BME280;8009;50.070;8.232;2023-04-04T19:51:49;100763.41;;;6.21;45.93
15817;BME280;8009;50.070;8.232;2023-04-04T19:54:22;100755.38;;;6.40;44.67
15817;BME280;8009;50.070;8.232;2023-04-04T19:56:55;100761.06;;;6.33;44.76
15817;BME280;8009;50.070;8.232;2023-04-04T19:59:46;100764.69;;;6.12;44.68
15817;BME280;8009;50.070;8.232;2023-04-04T20:08:17;100765.25;;;6.39;45.05
15817;BME280;8009;50.070;8.232;2023-04-04T20:10:46;100766.16;;;5.78;46.99
15817;BME280;8009;50.070;8.232;2023-04-04T20:13:16;100766.91;;;5.61;48.65